createdAt,value
2023-02-21T00:00:44.497Z,-0.96
2023-02-21T00:03:34.955Z,-0.95
2023-02-21T00:06:27.985Z,-0.94
2023-02-21T00:09:18.734Z,-0.92
2023-02-21T00:12:10.008Z,-0.89
2023-02-21T00:15:00.755Z,-0.87
2023-02-21T00:17:51.756Z,-0.87
2023-02-21T00:20:42.297Z,-0.84
2023-02-21T00:23:33.308Z,-0.83
2023-02-21T00:26:24.575Z,-0.82
2023-02-21T00:29:16.880Z,-0.83
2023-02-21T00:32:09.720Z,-0.82
2023-02-21T00:35:00.774Z,-0.81
2023-02-21T00:37:50.997Z,-0.81
2023-02-21T00:40:42.348Z,-0.79
2023-02-21T00:43:35.728Z,-0.79
2023-02-21T00:46:25.783Z,-0.78
2023-02-21T00:49:18.661Z,-0.79
2023-02-21T00:52:09.468Z,-0.78
2023-02-21T00:55:00.582Z,-0.78
2023-02-21T00:57:51.496Z,-0.77
2023-02-21T01:00:43.284Z,-0.76
2023-02-21T01:03:34.282Z,-0.77
2023-02-21T01:06:29.725Z,-0.78
2023-02-21T01:09:20.367Z,-0.76
2023-02-21T01:12:11.221Z,-0.73
2023-02-21T01:15:02.057Z,-0.71
2023-02-21T01:17:54.981Z,-0.67
2023-02-21T01:20:46.192Z,-0.62
2023-02-21T01:23:37.372Z,-0.58
2023-02-21T01:26:28.681Z,-0.55
2023-02-21T01:29:21.987Z,-0.49
2023-02-21T01:32:13.565Z,-0.46
2023-02-21T01:35:04.009Z,-0.45
2023-02-21T01:37:55.008Z,-0.42
2023-02-21T01:40:46.002Z,-0.38
2023-02-21T01:43:40.195Z,-0.35
2023-02-21T01:46:32.627Z,-0.34
2023-02-21T01:49:26.636Z,-0.33
2023-02-21T01:52:17.945Z,-0.31
2023-02-21T01:55:10.840Z,-0.29
2023-02-21T01:58:03.172Z,-0.25
2023-02-21T02:00:54.435Z,-0.24
2023-02-21T02:03:45.044Z,-0.24
2023-02-21T02:06:35.986Z,-0.24
2023-02-21T02:09:35.777Z,-0.22
2023-02-21T02:12:23.254Z,-0.22
2023-02-21T02:15:26.326Z,-0.20
2023-02-21T02:18:36.837Z,-0.17
2023-02-21T02:21:29.544Z,-0.16
2023-02-21T02:24:28.516Z,-0.15
2023-02-21T02:27:10.411Z,-0.11
2023-02-21T02:30:08.029Z,-0.08
2023-02-21T02:32:45.038Z,-0.04
2023-02-21T02:35:35.422Z,0.01
2023-02-21T02:38:20.112Z,0.04
2023-02-21T02:41:24.540Z,0.03
2023-02-21T02:44:02.628Z,0.03
2023-02-21T02:46:36.189Z,0.04
2023-02-21T02:49:15.632Z,0.04
2023-02-21T02:51:49.541Z,0.04
2023-02-21T02:54:23.218Z,0.04
2023-02-21T02:56:56.319Z,0.06
2023-02-21T02:59:30.115Z,0.07
2023-02-21T03:02:25.174Z,0.09
2023-02-21T03:05:22.326Z,0.11
2023-02-21T03:08:11.167Z,0.15
2023-02-21T03:10:51.252Z,0.17
2023-02-21T03:13:44.120Z,0.20
2023-02-21T03:16:25.589Z,0.24
2023-02-21T03:19:10.289Z,0.29
2023-02-21T03:21:44.900Z,0.30
2023-02-21T03:24:18.431Z,0.30
2023-02-21T03:26:54.032Z,0.28
2023-02-21T03:29:28.754Z,0.30
2023-02-21T03:32:13.338Z,0.30
2023-02-21T03:34:46.400Z,0.31
2023-02-21T03:37:31.113Z,0.32
2023-02-21T03:40:10.057Z,0.31
2023-02-21T03:42:42.985Z,0.32
2023-02-21T03:45:16.018Z,0.32
2023-02-21T03:47:49.521Z,0.33
2023-02-21T03:50:23.567Z,0.34
2023-02-21T03:52:56.716Z,0.33
2023-02-21T03:55:29.993Z,0.32
2023-02-21T03:58:03.158Z,0.34
2023-02-21T04:00:36.530Z,0.35
2023-02-21T04:03:09.491Z,0.36
2023-02-21T04:05:47.112Z,0.34
2023-02-21T04:08:20.034Z,0.32
2023-02-21T04:10:53.251Z,0.33
2023-02-21T04:13:27.670Z,0.32
2023-02-21T04:16:02.051Z,0.31
2023-02-21T04:18:37.677Z,0.30
2023-02-21T04:21:11.080Z,0.30
2023-02-21T04:23:44.472Z,0.30
2023-02-21T04:26:17.318Z,0.32
2023-02-21T04:28:52.888Z,0.32
2023-02-21T04:31:25.699Z,0.32
2023-02-21T04:34:11.381Z,0.31
2023-02-21T04:36:34.725Z,0.33
2023-02-21T04:39:08.543Z,0.34
2023-02-21T04:41:41.942Z,0.33
2023-02-21T04:44:15.288Z,0.35
2023-02-21T04:46:49.746Z,0.35
2023-02-21T04:49:24.182Z,0.38
2023-02-21T04:51:57.122Z,0.40
2023-02-21T04:54:29.844Z,0.42
2023-02-21T04:57:02.525Z,0.43
2023-02-21T04:59:35.128Z,0.43
2023-02-21T05:02:08.722Z,0.45
2023-02-21T05:04:43.452Z,0.45
2023-02-21T05:07:16.573Z,0.46
2023-02-21T05:09:50.180Z,0.47
2023-02-21T05:12:22.840Z,0.49
2023-02-21T05:14:55.455Z,0.51
2023-02-21T05:17:28.263Z,0.52
2023-02-21T05:20:00.988Z,0.54
2023-02-21T05:22:34.686Z,0.57
2023-02-21T05:25:11.031Z,0.58
2023-02-21T05:27:44.429Z,0.58
2023-02-21T05:30:19.482Z,0.62
2023-02-21T05:32:52.353Z,0.66
2023-02-21T05:35:24.928Z,0.68
2023-02-21T05:37:58.379Z,0.70
2023-02-21T05:40:31.932Z,0.74
2023-02-21T05:43:04.579Z,0.75
2023-02-21T05:45:38.085Z,0.77
2023-02-21T05:48:11.100Z,0.80
2023-02-21T05:50:45.563Z,0.84
2023-02-21T05:53:18.141Z,0.89
2023-02-21T05:55:51.352Z,0.95
2023-02-21T05:58:24.166Z,0.99
2023-02-21T06:00:57.019Z,1.05
2023-02-21T06:03:30.437Z,1.11
2023-02-21T06:06:03.828Z,1.17
2023-02-21T06:08:48.213Z,1.24
2023-02-21T06:11:28.710Z,1.34
2023-02-21T06:14:06.005Z,1.38
2023-02-21T06:16:39.286Z,1.38
2023-02-21T06:19:13.161Z,1.39
2023-02-21T06:21:46.518Z,1.41
2023-02-21T06:24:19.210Z,1.47
2023-02-21T06:26:52.082Z,1.50
2023-02-21T06:29:24.704Z,1.53
2023-02-21T06:32:01.310Z,1.58
2023-02-21T06:34:34.248Z,1.63
2023-02-21T06:37:07.635Z,1.68
2023-02-21T06:39:41.439Z,1.75
2023-02-21T06:42:15.590Z,1.80
2023-02-21T06:44:49.435Z,1.85
2023-02-21T06:47:27.431Z,1.87
2023-02-21T06:50:00.761Z,1.88
2023-02-21T06:52:33.483Z,1.88
2023-02-21T06:55:07.771Z,1.89
2023-02-21T06:57:40.674Z,1.89
2023-02-21T07:00:14.230Z,1.90
2023-02-21T07:02:47.006Z,1.92
2023-02-21T07:05:19.749Z,1.94
2023-02-21T07:07:53.847Z,1.98
2023-02-21T07:10:27.238Z,2.02
2023-02-21T07:13:00.632Z,2.06
2023-02-21T07:15:33.755Z,2.11
2023-02-21T07:18:06.907Z,2.17
2023-02-21T07:20:39.897Z,2.23
2023-02-21T07:23:13.337Z,2.26
2023-02-21T07:25:48.030Z,2.26
2023-02-21T07:28:20.858Z,2.25
2023-02-21T07:30:53.869Z,2.26
2023-02-21T07:33:27.303Z,2.25
2023-02-21T07:36:00.878Z,2.26
2023-02-21T07:38:33.945Z,2.26
2023-02-21T07:41:07.290Z,2.26
2023-02-21T07:43:40.405Z,2.26
2023-02-21T07:46:15.160Z,2.27
2023-02-21T07:48:48.389Z,2.28
2023-02-21T07:51:21.187Z,2.28
2023-02-21T07:53:54.181Z,2.31
2023-02-21T07:56:26.962Z,2.36
2023-02-21T07:58:59.676Z,2.40
2023-02-21T08:01:33.497Z,2.43
2023-02-21T08:04:06.768Z,2.45
2023-02-21T08:06:39.518Z,2.49
2023-02-21T08:09:12.824Z,2.52
2023-02-21T08:11:45.560Z,2.55
2023-02-21T08:14:18.332Z,2.60
2023-02-21T08:16:51.868Z,2.64
2023-02-21T08:19:26.396Z,2.67
2023-02-21T08:21:59.680Z,2.71
2023-02-21T08:24:32.363Z,2.79
2023-02-21T08:27:05.123Z,2.89
2023-02-21T08:29:38.064Z,3.00
2023-02-21T08:32:10.866Z,3.11
2023-02-21T08:34:48.544Z,3.19
2023-02-21T08:37:21.584Z,3.25
2023-02-21T08:39:54.355Z,3.33
2023-02-21T08:42:27.500Z,3.40
2023-02-21T08:45:00.114Z,3.48
2023-02-21T08:47:37.230Z,3.58
2023-02-21T08:50:10.096Z,3.65
2023-02-21T08:52:43.805Z,3.68
2023-02-21T08:55:16.802Z,3.70
2023-02-21T08:57:50.527Z,3.75
2023-02-21T09:00:25.193Z,3.81
2023-02-21T09:02:59.914Z,3.86
2023-02-21T09:05:33.349Z,3.92
2023-02-21T09:08:07.873Z,3.99
2023-02-21T09:10:42.305Z,4.07
2023-02-21T09:13:15.179Z,4.18
2023-02-21T09:15:48.010Z,4.22
2023-02-21T09:18:21.596Z,4.28
2023-02-21T09:20:57.536Z,4.34
2023-02-21T09:23:35.037Z,4.40
2023-02-21T09:26:07.910Z,4.47
2023-02-21T09:28:44.012Z,4.55
2023-02-21T09:31:17.067Z,4.62
2023-02-21T09:33:50.251Z,4.70
2023-02-21T09:36:23.795Z,4.76
2023-02-21T09:38:59.009Z,4.80
2023-02-21T09:41:31.022Z,4.81
2023-02-21T09:44:05.358Z,4.82
2023-02-21T09:46:43.939Z,4.82
2023-02-21T09:49:33.899Z,4.82
2023-02-21T09:52:06.543Z,4.82
2023-02-21T09:54:42.288Z,4.80
2023-02-21T09:57:17.852Z,4.80
2023-02-21T09:59:50.410Z,4.82
2023-02-21T10:02:26.684Z,4.84
2023-02-21T10:05:17.293Z,4.87
2023-02-21T10:08:09.477Z,4.92
2023-02-21T10:10:55.753Z,4.95
2023-02-21T10:13:44.071Z,5.00
2023-02-21T10:16:18.869Z,5.06
2023-02-21T10:18:56.337Z,5.12
2023-02-21T10:21:32.514Z,5.17
2023-02-21T10:24:14.169Z,5.20
2023-02-21T10:26:50.455Z,5.22
2023-02-21T10:29:28.420Z,5.24
2023-02-21T10:32:03.597Z,5.24
2023-02-21T10:34:36.801Z,5.24
2023-02-21T10:37:31.134Z,5.26
2023-02-21T10:40:23.725Z,5.28
2023-02-21T10:43:08.869Z,5.34
2023-02-21T10:45:46.812Z,5.39
2023-02-21T10:48:19.091Z,5.39
2023-02-21T10:50:53.618Z,5.34
2023-02-21T10:53:37.541Z,5.30
2023-02-21T10:56:24.706Z,5.30
2023-02-21T10:59:06.399Z,5.30
2023-02-21T11:01:44.982Z,5.31
2023-02-21T11:04:24.490Z,5.31
2023-02-21T11:07:01.706Z,5.33
2023-02-21T11:09:37.352Z,5.33
2023-02-21T11:12:21.895Z,5.33
2023-02-21T11:15:00.757Z,5.31
2023-02-21T11:17:34.205Z,5.31
2023-02-21T11:20:18.982Z,5.34
2023-02-21T11:22:52.923Z,5.38
2023-02-21T11:25:29.188Z,5.43
2023-02-21T11:28:13.990Z,5.50
2023-02-21T11:30:52.468Z,5.58
2023-02-21T11:33:25.391Z,5.63
2023-02-21T11:36:13.067Z,5.65
2023-02-21T11:38:48.424Z,5.64
2023-02-21T11:41:26.672Z,5.61
2023-02-21T11:43:59.783Z,5.56
2023-02-21T11:46:41.466Z,5.49
2023-02-21T11:49:20.274Z,5.44
2023-02-21T11:52:08.932Z,5.41
2023-02-21T11:54:42.024Z,5.42
2023-02-21T11:57:24.131Z,5.43
2023-02-21T12:00:12.350Z,5.43
2023-02-21T12:02:59.727Z,5.45
2023-02-21T12:05:54.570Z,5.46
2023-02-21T12:08:47.395Z,5.44
2023-02-21T12:11:43.306Z,5.39
2023-02-21T12:14:19.222Z,5.32
2023-02-21T12:17:15.130Z,5.30
2023-02-21T12:20:20.235Z,5.28
2023-02-21T12:23:21.598Z,5.31
2023-02-21T12:26:06.899Z,5.39
2023-02-21T12:28:48.794Z,5.50
2023-02-21T12:31:48.850Z,5.56
2023-02-21T12:34:30.702Z,5.58
2023-02-21T12:37:21.201Z,5.58
2023-02-21T12:40:13.182Z,5.58
2023-02-21T12:42:51.778Z,5.59
2023-02-21T12:45:42.856Z,5.59
2023-02-21T12:48:30.663Z,5.59
2023-02-21T12:51:06.738Z,5.61
2023-02-21T12:53:57.437Z,5.63
2023-02-21T12:56:39.489Z,5.64
2023-02-21T12:59:36.223Z,5.67
2023-02-21T13:02:30.144Z,5.68
2023-02-21T13:05:08.012Z,5.68
2023-02-21T13:07:50.223Z,5.67
2023-02-21T13:10:28.818Z,5.66
2023-02-21T13:13:08.791Z,5.63
2023-02-21T13:15:45.826Z,5.61
2023-02-21T13:18:27.970Z,5.58
2023-02-21T13:21:26.228Z,5.56
2023-02-21T13:24:18.908Z,5.53
2023-02-21T13:27:33.845Z,5.51
2023-02-21T13:30:27.720Z,5.53
2023-02-21T13:33:01.788Z,5.55
2023-02-21T13:35:39.736Z,5.58
2023-02-21T13:38:12.757Z,5.60
2023-02-21T13:40:53.726Z,5.62
2023-02-21T13:43:31.855Z,5.62
2023-02-21T13:46:32.577Z,5.60
2023-02-21T13:49:43.009Z,5.57
2023-02-21T13:52:24.555Z,5.51
2023-02-21T13:55:17.909Z,5.47
2023-02-21T13:58:01.177Z,5.44
2023-02-21T14:00:37.159Z,5.41
2023-02-21T14:03:14.701Z,5.37
2023-02-21T14:05:51.169Z,5.35
2023-02-21T14:08:43.901Z,5.30
2023-02-21T14:11:32.078Z,5.23
2023-02-21T14:14:08.234Z,5.11
2023-02-21T14:16:53.209Z,4.96
2023-02-21T14:19:28.779Z,4.80
2023-02-21T14:22:06.084Z,4.66
2023-02-21T14:24:41.606Z,4.53
2023-02-21T14:27:17.924Z,4.43
2023-02-21T14:30:03.305Z,4.32
2023-02-21T14:32:52.957Z,4.22
2023-02-21T14:35:36.824Z,4.11
2023-02-21T14:38:17.740Z,3.99
2023-02-21T14:41:11.969Z,3.92
2023-02-21T14:43:56.058Z,3.87
2023-02-21T14:46:34.752Z,3.80
2023-02-21T14:49:32.187Z,3.75
2023-02-21T14:52:29.389Z,3.72
2023-02-21T14:55:24.296Z,3.67
2023-02-21T14:58:12.857Z,3.62
2023-02-21T15:01:04.237Z,3.57
2023-02-21T15:03:44.473Z,3.54
2023-02-21T15:06:23.358Z,3.50
2023-02-21T15:08:56.089Z,3.45
2023-02-21T15:11:40.595Z,3.42
2023-02-21T15:14:18.245Z,3.39
2023-02-21T15:16:59.494Z,3.37
2023-02-21T15:19:34.213Z,3.33
2023-02-21T15:22:26.859Z,3.30
2023-02-21T15:25:11.603Z,3.26
2023-02-21T15:27:54.003Z,3.22
2023-02-21T15:30:30.188Z,3.19
2023-02-21T15:33:09.486Z,3.15
2023-02-21T15:35:48.470Z,3.10
2023-02-21T15:38:33.646Z,3.07
2023-02-21T15:41:18.887Z,3.04
2023-02-21T15:44:08.730Z,3.03
2023-02-21T15:46:50.508Z,3.00
2023-02-21T15:49:29.210Z,2.98
2023-02-21T15:52:03.320Z,2.97
2023-02-21T15:54:39.472Z,2.99
2023-02-21T15:57:15.313Z,2.97
2023-02-21T15:59:48.692Z,2.96
2023-02-21T16:02:26.469Z,2.97
2023-02-21T16:04:59.588Z,2.97
2023-02-21T16:07:38.774Z,2.95
2023-02-21T16:10:12.976Z,2.94
2023-02-21T16:12:48.450Z,2.93
2023-02-21T16:15:35.683Z,2.92
2023-02-21T16:18:10.161Z,2.93
2023-02-21T16:20:44.760Z,2.95
2023-02-21T16:23:32.425Z,2.94
2023-02-21T16:26:13.100Z,2.94
2023-02-21T16:28:45.923Z,2.93
2023-02-21T16:31:32.450Z,2.96
2023-02-21T16:34:05.400Z,2.97
2023-02-21T16:36:39.925Z,2.98
2023-02-21T16:39:12.534Z,2.98
2023-02-21T16:41:45.225Z,2.97
2023-02-21T16:44:17.945Z,2.96
2023-02-21T16:46:52.852Z,2.95
2023-02-21T16:49:25.908Z,2.92
2023-02-21T16:51:58.824Z,2.87
2023-02-21T16:54:32.179Z,2.82
2023-02-21T16:57:04.940Z,2.77
2023-02-21T16:59:38.795Z,2.73
2023-02-21T17:02:15.194Z,2.68
2023-02-21T17:04:47.964Z,2.66
2023-02-21T17:07:22.846Z,2.67
2023-02-21T17:09:55.432Z,2.70
2023-02-21T17:12:28.133Z,2.74
2023-02-21T17:15:01.361Z,2.77
2023-02-21T17:17:34.792Z,2.81
2023-02-21T17:20:08.401Z,2.81
2023-02-21T17:22:41.579Z,2.79
2023-02-21T17:25:14.208Z,2.77
2023-02-21T17:27:46.963Z,2.75
2023-02-21T17:30:21.801Z,2.75
2023-02-21T17:32:54.935Z,2.76
2023-02-21T17:35:28.604Z,2.78
2023-02-21T17:38:01.866Z,2.76
2023-02-21T17:40:34.927Z,2.77
2023-02-21T17:43:09.231Z,2.76
2023-02-21T17:45:41.942Z,2.78
2023-02-21T17:48:14.685Z,2.79
2023-02-21T17:50:48.199Z,2.81
2023-02-21T17:53:21.637Z,2.82
2023-02-21T17:55:54.357Z,2.82
2023-02-21T17:58:33.914Z,2.81
2023-02-21T18:01:08.590Z,2.82
2023-02-21T18:03:40.964Z,2.80
2023-02-21T18:06:13.573Z,2.81
2023-02-21T18:08:47.326Z,2.82
2023-02-21T18:11:20.325Z,2.82
2023-02-21T18:13:53.532Z,2.80
2023-02-21T18:16:26.499Z,2.79
2023-02-21T18:18:59.806Z,2.77
2023-02-21T18:21:33.526Z,2.73
2023-02-21T18:24:11.143Z,2.68
2023-02-21T18:26:44.016Z,2.63
2023-02-21T18:29:16.805Z,2.60
2023-02-21T18:31:56.596Z,2.59
2023-02-21T18:34:29.603Z,2.54
2023-02-21T18:37:04.202Z,2.49
2023-02-21T18:39:37.175Z,2.45
2023-02-21T18:42:10.067Z,2.42
2023-02-21T18:44:42.876Z,2.39
2023-02-21T18:47:17.122Z,2.35
2023-02-21T18:49:50.007Z,2.31
2023-02-21T18:52:23.246Z,2.28
2023-02-21T18:54:57.955Z,2.23
2023-02-21T18:57:31.871Z,2.19
2023-02-21T19:00:06.899Z,2.18
2023-02-21T19:02:39.554Z,2.18
2023-02-21T19:05:20.144Z,2.20
2023-02-21T19:07:53.909Z,2.22
2023-02-21T19:10:29.004Z,2.21
2023-02-21T19:13:02.417Z,2.20
2023-02-21T19:15:35.338Z,2.20
2023-02-21T19:18:09.173Z,2.20
2023-02-21T19:20:43.440Z,2.21
2023-02-21T19:23:16.883Z,2.21
2023-02-21T19:25:49.922Z,2.21
2023-02-21T19:28:25.026Z,2.22
2023-02-21T19:30:57.550Z,2.23
2023-02-21T19:33:30.179Z,2.26
2023-02-21T19:36:06.213Z,2.25
2023-02-21T19:38:39.180Z,2.26
2023-02-21T19:41:11.872Z,2.26
2023-02-21T19:43:45.324Z,2.24
2023-02-21T19:46:24.808Z,2.25
2023-02-21T19:48:57.829Z,2.26
2023-02-21T19:51:32.328Z,2.27
2023-02-21T19:54:06.173Z,2.29
2023-02-21T19:56:39.880Z,2.29
2023-02-21T19:59:12.965Z,2.26
2023-02-21T20:01:46.303Z,2.24
2023-02-21T20:04:19.649Z,2.24
2023-02-21T20:06:52.952Z,2.25
2023-02-21T20:09:26.034Z,2.25
2023-02-21T20:12:00.170Z,2.23
2023-02-21T20:14:33.251Z,2.18
2023-02-21T20:17:06.418Z,2.15
2023-02-21T20:19:41.261Z,2.13
2023-02-21T20:22:14.315Z,2.10
2023-02-21T20:24:47.332Z,2.06
2023-02-21T20:27:20.703Z,1.98
2023-02-21T20:29:54.254Z,1.92
2023-02-21T20:32:27.628Z,1.86
2023-02-21T20:35:02.034Z,1.78
2023-02-21T20:37:35.704Z,1.69
2023-02-21T20:40:11.447Z,1.65
2023-02-21T20:42:44.880Z,1.61
2023-02-21T20:45:18.836Z,1.62
2023-02-21T20:47:52.933Z,1.63
2023-02-21T20:50:26.286Z,1.61
2023-02-21T20:52:59.935Z,1.63
2023-02-21T20:55:33.339Z,1.65
2023-02-21T20:58:06.896Z,1.69
2023-02-21T21:00:40.471Z,1.67
2023-02-21T21:03:15.531Z,1.62
2023-02-21T21:05:48.894Z,1.62
2023-02-21T21:08:22.580Z,1.62
2023-02-21T21:10:57.280Z,1.62
2023-02-21T21:13:31.118Z,1.58
2023-02-21T21:16:07.917Z,1.57
2023-02-21T21:18:41.791Z,1.55
2023-02-21T21:21:16.001Z,1.55
2023-02-21T21:23:49.204Z,1.53
2023-02-21T21:26:22.488Z,1.52
2023-02-21T21:28:55.473Z,1.51
2023-02-21T21:31:28.539Z,1.50
2023-02-21T21:34:01.469Z,1.51
2023-02-21T21:36:36.088Z,1.51
2023-02-21T21:39:09.003Z,1.51
2023-02-21T21:41:46.939Z,1.52
2023-02-21T21:44:23.500Z,1.52
2023-02-21T21:46:56.620Z,1.54
2023-02-21T21:49:35.472Z,1.56
2023-02-21T21:52:08.638Z,1.56
2023-02-21T21:54:45.676Z,1.59
2023-02-21T21:57:20.279Z,1.60
2023-02-21T21:59:53.344Z,1.60
2023-02-21T22:02:26.514Z,1.62
2023-02-21T22:04:59.352Z,1.61
2023-02-21T22:07:31.844Z,1.63
2023-02-21T22:10:06.813Z,1.64
2023-02-21T22:12:40.817Z,1.66
2023-02-21T22:15:13.661Z,1.70
2023-02-21T22:17:46.968Z,1.73
2023-02-21T22:20:23.971Z,1.75
2023-02-21T22:22:59.465Z,1.81
2023-02-21T22:25:35.325Z,1.87
2023-02-21T22:28:12.430Z,1.90
2023-02-21T22:30:46.340Z,1.93
2023-02-21T22:33:21.307Z,1.96
2023-02-21T22:35:55.188Z,1.97
2023-02-21T22:38:27.770Z,1.97
2023-02-21T22:41:00.548Z,1.95
2023-02-21T22:43:33.390Z,1.91
2023-02-21T22:46:08.072Z,1.87
2023-02-21T22:48:40.794Z,1.81
2023-02-21T22:51:15.085Z,1.78
2023-02-21T22:53:51.252Z,1.76
2023-02-21T22:56:24.837Z,1.74
2023-02-21T22:59:00.016Z,1.77
2023-02-21T23:01:34.307Z,1.78
2023-02-21T23:04:14.704Z,1.83
2023-02-21T23:06:47.814Z,1.86
2023-02-21T23:09:20.819Z,1.90
2023-02-21T23:11:55.764Z,1.94
2023-02-21T23:14:31.211Z,1.98
2023-02-21T23:17:04.088Z,2.02
2023-02-21T23:19:38.663Z,2.04
2023-02-21T23:22:11.423Z,2.07
2023-02-21T23:24:45.998Z,2.10
2023-02-21T23:27:20.704Z,2.13
2023-02-21T23:29:54.361Z,2.15
2023-02-21T23:32:28.781Z,2.17
2023-02-21T23:35:01.980Z,2.19
2023-02-21T23:37:36.693Z,2.22
2023-02-21T23:40:12.576Z,2.21
2023-02-21T23:42:47.090Z,2.21
2023-02-21T23:45:23.355Z,2.22
2023-02-21T23:47:56.492Z,2.19
2023-02-21T23:50:30.711Z,2.15
2023-02-21T23:53:04.092Z,2.14
2023-02-21T23:55:36.884Z,2.11
2023-02-21T23:58:13.105Z,2.11
